Terminal Aerodrome Forecast
Issued by NWS

Home | Current Version | Previous Version | Text Only | Print | Product List | Glossary On
Versions: 1 2 3 4 5 6 7 8 9 10 11 12 13 14 15 16 17 18 19 20 21 22 23 24 25 26 27 28 29
000
FTUS41 KOKX 231120
TAFTEB
TAF
KTEB 231120Z 2312/2412 VRB02KT P6SM FEW010 BKN025
     FM231400 15007KT P6SM SCT008 BKN035
     FM231900 15010KT P6SM BKN040
     FM240000 15010KT 6SM -DZ BR SCT008 BKN025
     FM240800 16014G20KT 5SM SHRA BR SCT008 BKN015=

USA.gov is the U.S. government's official web portal to all federal, state and local government web resources and services.